createdAt,value
2023-01-23T00:01:13.179Z,36.08
2023-01-23T00:03:40.012Z,32.22
2023-01-23T00:06:10.782Z,38.15
2023-01-23T00:08:38.321Z,34.15
2023-01-23T00:11:11.342Z,31.02
2023-01-23T00:13:38.654Z,35.25
2023-01-23T00:16:14.846Z,32.20
2023-01-23T00:18:42.100Z,35.47
2023-01-23T00:21:11.448Z,34.10
2023-01-23T00:23:41.548Z,34.42
2023-01-23T00:26:11.204Z,31.50
2023-01-23T00:28:37.988Z,30.88
2023-01-23T00:31:13.066Z,37.70
2023-01-23T00:33:40.489Z,31.73
2023-01-23T00:36:08.487Z,35.45
2023-01-23T00:38:36.136Z,37.28
2023-01-23T00:41:03.751Z,36.20
2023-01-23T00:43:31.187Z,36.53
2023-01-23T00:45:58.102Z,35.10
2023-01-23T00:48:25.199Z,31.77
2023-01-23T00:50:53.217Z,39.65
2023-01-23T00:53:20.273Z,35.47
2023-01-23T00:55:47.077Z,34.55
2023-01-23T00:58:13.860Z,34.83
2023-01-23T01:00:40.817Z,39.63
2023-01-23T01:03:08.578Z,40.53
2023-01-23T01:05:35.524Z,36.67
2023-01-23T01:08:02.404Z,38.10
2023-01-23T01:10:29.694Z,39.72
2023-01-23T01:12:57.800Z,35.78
2023-01-23T01:15:25.072Z,35.10
2023-01-23T01:17:54.236Z,41.60
2023-01-23T01:20:26.064Z,36.53
2023-01-23T01:22:54.549Z,38.70
2023-01-23T01:25:21.431Z,31.75
2023-01-23T01:27:48.599Z,39.97
2023-01-23T01:30:17.682Z,32.03
2023-01-23T01:32:45.208Z,36.45
2023-01-23T01:35:12.651Z,35.30
2023-01-23T01:37:40.771Z,35.97
2023-01-23T01:40:12.082Z,35.35
2023-01-23T01:42:43.515Z,32.88
2023-01-23T01:45:48.100Z,38.25
2023-01-23T01:48:15.444Z,35.95
2023-01-23T01:50:42.709Z,33.63
2023-01-23T01:53:10.807Z,36.80
2023-01-23T01:55:39.070Z,36.08
2023-01-23T01:58:06.523Z,33.70
2023-01-23T02:00:33.444Z,38.05
2023-01-23T02:03:03.424Z,34.00
2023-01-23T02:05:43.013Z,32.90
2023-01-23T02:08:26.758Z,34.72
2023-01-23T02:10:53.921Z,34.38
2023-01-23T02:13:39.433Z,33.13
2023-01-23T02:16:10.446Z,35.17
2023-01-23T02:18:42.686Z,32.80
2023-01-23T02:21:10.824Z,36.67
2023-01-23T02:24:01.433Z,35.97
2023-01-23T02:26:32.933Z,42.83
2023-01-23T02:28:59.853Z,35.13
2023-01-23T02:31:27.276Z,35.17
2023-01-23T02:33:56.624Z,36.67
2023-01-23T02:36:27.282Z,37.65
2023-01-23T02:39:15.319Z,36.20
2023-01-23T02:41:50.229Z,34.47
2023-01-23T02:44:19.988Z,35.42
2023-01-23T02:46:46.777Z,32.38
2023-01-23T02:49:13.651Z,33.05
2023-01-23T02:51:40.415Z,35.08
2023-01-23T02:54:07.365Z,30.63
2023-01-23T02:56:34.372Z,33.55
2023-01-23T02:59:19.663Z,35.72
2023-01-23T03:01:46.660Z,36.50
2023-01-23T03:04:13.483Z,31.80
2023-01-23T03:06:40.236Z,33.92
2023-01-23T03:09:10.353Z,32.67
2023-01-23T03:11:39.725Z,34.05
2023-01-23T03:14:08.773Z,33.00
2023-01-23T03:16:38.281Z,31.77
2023-01-23T03:19:09.014Z,34.83
2023-01-23T03:21:40.445Z,33.17
2023-01-23T03:24:09.360Z,34.75
2023-01-23T03:26:39.034Z,30.92
2023-01-23T03:29:24.841Z,36.03
2023-01-23T03:31:52.062Z,31.83
2023-01-23T03:34:19.166Z,31.25
2023-01-23T03:36:45.996Z,31.83
2023-01-23T03:39:31.246Z,31.48
2023-01-23T03:41:58.010Z,35.47
2023-01-23T03:44:24.840Z,33.03
2023-01-23T03:46:52.454Z,33.03
2023-01-23T03:49:19.890Z,29.85
2023-01-23T03:51:47.047Z,35.22
2023-01-23T03:54:14.848Z,35.15
2023-01-23T03:56:42.477Z,30.15
2023-01-23T03:59:10.227Z,31.27
2023-01-23T04:01:38.057Z,33.85
2023-01-23T04:04:05.416Z,29.90
2023-01-23T04:06:32.728Z,27.77
2023-01-23T04:08:59.605Z,27.77
2023-01-23T04:11:27.035Z,34.97
2023-01-23T04:13:55.129Z,31.92
2023-01-23T04:16:22.908Z,28.05
2023-01-23T04:18:51.132Z,30.02
2023-01-23T04:21:18.096Z,31.80
2023-01-23T04:23:44.943Z,28.60
2023-01-23T04:26:12.338Z,30.60
2023-01-23T04:28:39.359Z,26.73
2023-01-23T04:31:06.793Z,30.75
2023-01-23T04:33:33.675Z,30.35
2023-01-23T04:36:03.414Z,34.00
2023-01-23T04:38:31.528Z,30.70
2023-01-23T04:40:58.391Z,31.88
2023-01-23T04:43:25.523Z,28.35
2023-01-23T04:45:54.412Z,28.35
2023-01-23T04:48:21.759Z,29.90
2023-01-23T04:50:49.918Z,31.35
2023-01-23T04:53:16.790Z,30.67
2023-01-23T04:55:46.203Z,30.95
2023-01-23T04:58:13.037Z,33.90
2023-01-23T05:00:39.883Z,29.15
2023-01-23T05:03:06.657Z,29.02
2023-01-23T05:05:33.537Z,31.95
2023-01-23T05:08:00.568Z,33.00
2023-01-23T05:10:27.415Z,30.42
2023-01-23T05:12:54.206Z,26.13
2023-01-23T05:15:21.378Z,26.13
2023-01-23T05:17:48.948Z,23.45
2023-01-23T05:20:16.100Z,28.02
2023-01-23T05:22:52.426Z,29.23
2023-01-23T05:25:25.095Z,27.50
2023-01-23T05:27:52.628Z,32.65
2023-01-23T05:30:23.109Z,25.30
2023-01-23T05:32:50.106Z,28.38
2023-01-23T05:35:17.395Z,27.67
2023-01-23T05:37:48.794Z,28.65
2023-01-23T05:40:15.663Z,31.00
2023-01-23T05:42:42.461Z,30.13
2023-01-23T05:45:09.636Z,30.38
2023-01-23T05:47:36.493Z,28.15
2023-01-23T05:50:04.613Z,28.73
2023-01-23T05:52:31.406Z,28.65
2023-01-23T05:54:58.252Z,30.60
2023-01-23T05:57:25.134Z,33.88
2023-01-23T05:59:51.921Z,30.88
2023-01-23T06:02:18.809Z,29.70
2023-01-23T06:04:48.032Z,30.77
2023-01-23T06:07:16.421Z,32.90
2023-01-23T06:09:43.282Z,32.63
2023-01-23T06:12:10.328Z,28.25
2023-01-23T06:14:37.279Z,31.80
2023-01-23T06:17:04.581Z,29.90
2023-01-23T06:19:31.495Z,33.63
2023-01-23T06:21:58.365Z,32.75
2023-01-23T06:24:25.258Z,29.15
2023-01-23T06:26:52.027Z,33.08
2023-01-23T06:29:18.845Z,34.45
2023-01-23T06:31:49.497Z,30.13
2023-01-23T06:34:36.970Z,33.42
2023-01-23T06:37:04.535Z,31.25
2023-01-23T06:39:55.405Z,34.50
2023-01-23T06:42:31.381Z,37.72
2023-01-23T06:44:58.585Z,41.47
2023-01-23T06:47:34.383Z,38.33
2023-01-23T06:50:07.415Z,36.75
2023-01-23T06:52:34.729Z,38.25
2023-01-23T06:55:02.370Z,33.65
2023-01-23T07:03:17.136Z,41.55
2023-01-23T07:10:36.909Z,47.83
2023-01-23T07:12:10.197Z,46.83
2023-01-23T07:18:16.893Z,44.47
2023-01-23T07:20:50.786Z,42.72
2023-01-23T07:23:40.623Z,50.05
2023-01-23T07:26:10.062Z,45.00
2023-01-23T07:28:49.089Z,51.42
2023-01-23T07:31:18.347Z,48.95
2023-01-23T07:33:48.435Z,49.35
2023-01-23T07:36:37.096Z,50.05
2023-01-23T07:39:11.188Z,51.00
2023-01-23T07:44:38.914Z,52.38
2023-01-23T07:47:08.799Z,47.47
2023-01-23T07:49:35.785Z,46.75
2023-01-23T07:52:22.148Z,52.15
2023-01-23T07:54:51.904Z,47.03
2023-01-23T07:57:19.031Z,44.22
2023-01-23T07:59:47.918Z,44.17
2023-01-23T08:02:24.172Z,48.63
2023-01-23T08:04:51.546Z,41.75
2023-01-23T08:07:18.698Z,43.75
2023-01-23T08:09:49.747Z,48.67
2023-01-23T08:12:28.365Z,37.15
2023-01-23T08:14:56.788Z,37.10
2023-01-23T08:17:26.992Z,40.38
2023-01-23T08:19:56.966Z,37.70
2023-01-23T08:22:37.477Z,35.38
2023-01-23T08:25:04.979Z,35.50
2023-01-23T08:27:32.036Z,40.20
2023-01-23T08:29:59.268Z,36.85
2023-01-23T08:32:26.424Z,31.90
2023-01-23T08:34:56.339Z,30.98
2023-01-23T08:37:23.195Z,29.55
2023-01-23T08:39:49.970Z,30.67
2023-01-23T08:42:16.755Z,33.38
2023-01-23T08:44:43.525Z,31.83
2023-01-23T08:47:10.341Z,28.92
2023-01-23T08:49:37.249Z,34.95
2023-01-23T08:52:05.920Z,34.42
2023-01-23T08:54:33.136Z,30.88
2023-01-23T08:56:59.956Z,28.83
2023-01-23T08:59:26.831Z,27.52
2023-01-23T09:01:53.668Z,31.55
2023-01-23T09:04:20.456Z,32.75
2023-01-23T09:06:47.282Z,8.48
2023-01-23T09:09:14.088Z,27.58
2023-01-23T09:11:40.879Z,33.33
2023-01-23T09:14:07.857Z,33.20
2023-01-23T09:16:34.730Z,34.28
2023-01-23T09:19:01.514Z,29.73
2023-01-23T09:21:28.387Z,30.42
2023-01-23T09:23:58.882Z,30.35
2023-01-23T09:26:26.228Z,30.95
2023-01-23T09:28:54.539Z,32.97
2023-01-23T09:31:21.378Z,29.00
2023-01-23T09:33:49.206Z,26.27
2023-01-23T09:36:16.064Z,25.83
2023-01-23T09:38:42.928Z,31.73
2023-01-23T09:41:17.858Z,29.75
2023-01-23T09:43:55.530Z,29.50
2023-01-23T09:46:37.506Z,25.13
2023-01-23T09:49:13.104Z,29.10
2023-01-23T09:52:01.702Z,25.95
2023-01-23T09:54:28.525Z,28.23
2023-01-23T09:56:56.579Z,24.35
2023-01-23T09:59:58.723Z,26.15
2023-01-23T10:02:28.148Z,26.23
2023-01-23T10:04:56.596Z,23.80
2023-01-23T10:07:37.922Z,26.90
2023-01-23T10:10:40.316Z,28.42
2023-01-23T10:13:41.912Z,23.60
2023-01-23T10:16:22.832Z,21.75
2023-01-23T10:19:05.510Z,27.42
2023-01-23T10:21:52.237Z,31.33
2023-01-23T10:24:58.328Z,28.25
2023-01-23T10:27:31.431Z,27.42
2023-01-23T10:30:03.736Z,29.83
2023-01-23T10:32:37.538Z,28.95
2023-01-23T10:35:12.607Z,25.73
2023-01-23T10:37:52.703Z,22.25
2023-01-23T10:40:42.416Z,27.55
2023-01-23T10:43:18.038Z,28.23
2023-01-23T10:45:49.793Z,31.08
2023-01-23T10:48:39.122Z,28.92
2023-01-23T10:51:39.507Z,30.92
2023-01-23T10:54:11.322Z,28.60
2023-01-23T10:56:53.711Z,28.83
2023-01-23T10:59:26.638Z,29.88
2023-01-23T11:02:13.808Z,24.55
2023-01-23T11:04:45.985Z,26.48
2023-01-23T11:07:20.515Z,31.35
2023-01-23T11:10:00.561Z,27.67
2023-01-23T11:12:28.644Z,28.92
2023-01-23T11:15:21.326Z,29.40
2023-01-23T11:17:49.695Z,31.73
2023-01-23T11:20:33.457Z,30.50
2023-01-23T11:23:01.399Z,18.67
2023-01-23T11:25:39.972Z,26.67
2023-01-23T11:28:30.812Z,28.17
2023-01-23T11:31:27.323Z,26.95
2023-01-23T11:33:59.336Z,27.83
2023-01-23T11:36:53.298Z,30.52
2023-01-23T11:39:42.066Z,27.40
2023-01-23T11:42:13.625Z,25.20
2023-01-23T11:44:46.518Z,27.25
2023-01-23T11:47:34.809Z,24.67
2023-01-23T11:50:04.488Z,25.40
2023-01-23T11:52:34.641Z,27.30
2023-01-23T11:55:39.756Z,26.10
2023-01-23T11:58:39.571Z,22.58
2023-01-23T12:01:15.725Z,23.50
2023-01-23T12:04:00.725Z,27.00
2023-01-23T12:06:45.743Z,25.60
2023-01-23T12:09:18.061Z,27.95
2023-01-23T12:12:15.286Z,25.42
2023-01-23T12:15:03.585Z,28.05
2023-01-23T12:17:46.935Z,23.67
2023-01-23T12:20:33.215Z,29.65
2023-01-23T12:23:32.471Z,22.55
2023-01-23T12:26:04.883Z,25.98
2023-01-23T12:28:45.129Z,26.88
2023-01-23T12:31:33.724Z,28.48
2023-01-23T12:34:03.644Z,27.45
2023-01-23T12:37:07.188Z,24.23
2023-01-23T12:39:59.814Z,27.67
2023-01-23T12:42:43.531Z,24.13
2023-01-23T12:45:22.939Z,28.58
2023-01-23T12:48:02.055Z,30.25
2023-01-23T12:50:35.206Z,24.98
2023-01-23T12:53:09.917Z,25.80
2023-01-23T12:55:59.284Z,30.70
2023-01-23T12:58:29.167Z,25.25
2023-01-23T13:01:07.800Z,30.00
2023-01-23T13:03:56.842Z,31.65
2023-01-23T13:06:35.607Z,29.08
2023-01-23T13:09:18.715Z,27.58
2023-01-23T13:12:05.057Z,31.50
2023-01-23T13:14:43.489Z,25.52
2023-01-23T13:17:37.037Z,26.88
2023-01-23T13:20:47.284Z,27.65
2023-01-23T13:23:35.367Z,26.17
2023-01-23T13:26:19.459Z,26.40
2023-01-23T13:28:57.234Z,28.55
2023-01-23T13:31:47.640Z,26.40
2023-01-23T13:34:17.783Z,26.00
2023-01-23T13:36:49.668Z,24.52
2023-01-23T13:39:22.928Z,24.75
2023-01-23T13:42:12.796Z,23.55
2023-01-23T13:45:14.650Z,23.50
2023-01-23T14:22:40.949Z,25.60
2023-01-23T14:25:17.550Z,27.30
2023-01-23T14:27:53.282Z,23.17
2023-01-23T14:30:28.251Z,25.25
2023-01-23T14:32:56.675Z,23.80
2023-01-23T14:35:30.792Z,26.83
2023-01-23T14:38:00.790Z,26.88
2023-01-23T14:40:33.421Z,24.17
2023-01-23T14:43:09.810Z,25.75
2023-01-23T14:45:37.663Z,26.25
2023-01-23T14:48:15.816Z,21.45
2023-01-23T14:50:43.004Z,23.15
2023-01-23T14:53:15.271Z,28.23
2023-01-23T14:55:46.232Z,24.23
2023-01-23T14:58:23.886Z,25.90
2023-01-23T15:01:04.748Z,22.27
2023-01-23T15:03:36.215Z,25.02
2023-01-23T15:06:08.431Z,26.17
2023-01-23T15:08:36.922Z,29.65
2023-01-23T15:11:06.491Z,22.20
2023-01-23T15:13:50.312Z,26.25
2023-01-23T15:16:26.080Z,24.15
2023-01-23T15:19:08.178Z,22.85
2023-01-23T15:21:38.553Z,27.98
2023-01-23T15:24:20.416Z,24.90
2023-01-23T15:26:55.927Z,22.60
2023-01-23T15:29:23.094Z,26.38
2023-01-23T15:31:52.602Z,27.75
2023-01-23T15:34:31.614Z,28.17
2023-01-23T15:37:13.689Z,30.67
2023-01-23T15:39:51.485Z,24.23
2023-01-23T15:42:18.216Z,20.02
2023-01-23T15:44:45.344Z,26.45
2023-01-23T15:47:12.150Z,25.55
2023-01-23T15:49:40.163Z,25.13
2023-01-23T15:52:46.028Z,27.13
2023-01-23T15:55:13.403Z,24.80
2023-01-23T15:57:41.892Z,32.65
2023-01-23T16:00:24.883Z,29.98
2023-01-23T16:02:56.734Z,22.92
2023-01-23T16:05:30.178Z,33.70
2023-01-23T16:08:01.161Z,33.60
2023-01-23T16:10:36.222Z,34.28
2023-01-23T16:13:03.107Z,32.03
2023-01-23T16:15:32.981Z,32.28
2023-01-23T16:18:00.887Z,24.27
2023-01-23T16:20:31.063Z,33.35
2023-01-23T16:23:18.751Z,36.47
2023-01-23T16:25:46.682Z,35.90
2023-01-23T16:28:15.883Z,24.48
2023-01-23T16:30:42.959Z,34.13
2023-01-23T16:33:09.991Z,35.40
2023-01-23T16:35:36.952Z,35.42
2023-01-23T16:38:04.191Z,36.25
2023-01-23T16:40:32.108Z,21.77
2023-01-23T16:43:00.051Z,34.03
2023-01-23T16:45:29.341Z,36.63
2023-01-23T16:47:56.669Z,32.67
2023-01-23T16:50:44.010Z,34.50
2023-01-23T16:53:31.288Z,32.60
2023-01-23T16:56:00.468Z,21.55
2023-01-23T16:58:30.870Z,35.08
2023-01-23T17:01:08.803Z,37.28
2023-01-23T17:03:40.725Z,32.72
2023-01-23T17:06:17.036Z,41.72
2023-01-23T17:08:43.874Z,38.53
2023-01-23T17:11:20.010Z,32.95
2023-01-23T17:13:48.235Z,33.35
2023-01-23T17:16:26.439Z,33.85
2023-01-23T17:18:55.688Z,32.47
2023-01-23T17:21:25.010Z,31.63
2023-01-23T17:23:52.212Z,33.53
2023-01-23T17:26:20.902Z,33.78
2023-01-23T17:28:48.154Z,32.45
2023-01-23T17:31:24.751Z,36.35
2023-01-23T17:33:55.907Z,30.80
2023-01-23T17:36:22.838Z,37.83
2023-01-23T17:38:57.966Z,37.30
2023-01-23T17:41:24.841Z,38.05
2023-01-23T17:43:52.757Z,32.92
2023-01-23T17:46:23.881Z,26.05
2023-01-23T17:48:50.771Z,36.22
2023-01-23T17:51:19.529Z,35.33
2023-01-23T17:53:46.896Z,32.90
2023-01-23T17:56:14.159Z,34.58
2023-01-23T17:58:41.054Z,45.60
2023-01-23T18:01:22.349Z,35.75
2023-01-23T18:03:50.756Z,35.75
2023-01-23T18:06:18.654Z,38.65
2023-01-23T18:08:46.166Z,35.45
2023-01-23T18:11:21.852Z,29.65
2023-01-23T18:13:59.910Z,31.67
2023-01-23T18:16:35.206Z,33.80
2023-01-23T18:19:17.047Z,28.98
2023-01-23T18:21:45.873Z,36.83
2023-01-23T18:24:30.307Z,47.05
2023-01-23T18:27:04.876Z,36.03
2023-01-23T18:29:43.886Z,30.27
2023-01-23T18:32:18.848Z,34.55
2023-01-23T18:35:23.644Z,39.53
2023-01-23T18:38:07.587Z,44.22
2023-01-23T18:41:01.186Z,28.00
2023-01-23T18:43:39.802Z,30.38
2023-01-23T18:46:15.313Z,36.00
2023-01-23T18:48:43.722Z,41.80
2023-01-23T18:51:38.632Z,29.95
2023-01-23T18:54:23.044Z,34.25
2023-01-23T18:57:26.165Z,38.20
2023-01-23T19:00:17.705Z,43.08
2023-01-23T19:02:46.855Z,37.00
2023-01-23T19:05:16.706Z,38.45
2023-01-23T19:07:45.065Z,40.80
2023-01-23T19:10:17.627Z,37.42
2023-01-23T19:13:02.104Z,41.28
2023-01-23T19:15:30.243Z,43.65
2023-01-23T19:18:12.356Z,48.90
2023-01-23T19:20:55.416Z,43.13
2023-01-23T19:23:44.295Z,46.25
2023-01-23T19:26:16.596Z,42.90
2023-01-23T19:28:43.780Z,36.40
2023-01-23T19:31:37.846Z,43.10
2023-01-23T19:34:06.641Z,39.85
2023-01-23T19:36:35.989Z,43.80
2023-01-23T19:39:04.532Z,36.92
2023-01-23T19:41:49.248Z,44.80
2023-01-23T19:44:18.917Z,38.33
2023-01-23T19:46:46.219Z,49.47
2023-01-23T19:49:14.080Z,51.80
2023-01-23T19:51:41.508Z,43.13
2023-01-23T19:54:12.516Z,32.90
2023-01-23T19:56:39.521Z,43.58
2023-01-23T19:59:07.078Z,36.17
2023-01-23T20:01:34.596Z,41.72
2023-01-23T20:04:05.252Z,39.70
2023-01-23T20:06:34.323Z,40.63
2023-01-23T20:09:01.262Z,40.90
2023-01-23T20:11:28.147Z,43.08
2023-01-23T20:13:54.916Z,44.05
2023-01-23T20:16:25.120Z,41.63
2023-01-23T20:18:53.673Z,36.58
2023-01-23T20:21:23.007Z,41.70
2023-01-23T20:23:50.592Z,38.78
2023-01-23T20:26:19.549Z,42.42
2023-01-23T20:28:53.345Z,45.30
2023-01-23T20:31:20.301Z,45.33
2023-01-23T20:33:47.531Z,38.80
2023-01-23T20:36:15.965Z,41.60
2023-01-23T20:38:43.221Z,40.20
2023-01-23T20:41:15.322Z,48.05
2023-01-23T20:43:45.451Z,41.45
2023-01-23T20:46:14.389Z,37.33
2023-01-23T20:48:46.009Z,42.92
2023-01-23T20:51:15.056Z,41.75
2023-01-23T20:53:41.926Z,37.75
2023-01-23T20:56:20.096Z,45.42
2023-01-23T20:59:07.810Z,44.67
2023-01-23T21:01:56.648Z,44.28
2023-01-23T21:04:28.670Z,39.55
2023-01-23T21:06:55.537Z,37.28
2023-01-23T21:09:23.211Z,35.85
2023-01-23T21:11:51.702Z,42.10
2023-01-23T21:14:19.395Z,39.90
2023-01-23T21:16:47.150Z,41.45
2023-01-23T21:19:14.821Z,47.55
2023-01-23T21:21:41.997Z,35.60
2023-01-23T21:24:09.197Z,46.03
2023-01-23T21:26:37.355Z,43.90
2023-01-23T21:29:04.729Z,41.03
2023-01-23T21:31:34.176Z,38.10
2023-01-23T21:34:10.320Z,41.35
2023-01-23T21:36:37.912Z,44.10
2023-01-23T21:39:05.445Z,41.05
2023-01-23T21:41:32.227Z,44.17
2023-01-23T21:43:59.036Z,44.53
2023-01-23T21:46:25.905Z,40.90
2023-01-23T21:48:52.734Z,41.90
2023-01-23T21:51:21.737Z,39.10
2023-01-23T21:53:50.372Z,45.22
2023-01-23T21:56:19.618Z,43.35
2023-01-23T21:58:49.315Z,42.08
2023-01-23T22:01:35.680Z,43.45
2023-01-23T22:04:22.448Z,40.17
2023-01-23T22:06:54.093Z,42.60
2023-01-23T22:09:24.646Z,43.63
2023-01-23T22:11:52.177Z,43.10
2023-01-23T22:14:19.369Z,40.40
2023-01-23T22:16:49.698Z,41.28
2023-01-23T22:19:21.049Z,37.58
2023-01-23T22:21:49.496Z,42.60
2023-01-23T22:24:16.371Z,39.90
2023-01-23T22:26:43.553Z,41.75
2023-01-23T22:29:14.965Z,39.83
2023-01-23T22:31:42.617Z,38.28
2023-01-23T22:34:09.977Z,40.03
2023-01-23T22:36:36.814Z,37.38
2023-01-23T22:39:04.081Z,44.10
2023-01-23T22:41:30.912Z,41.20
2023-01-23T22:43:59.455Z,43.10
2023-01-23T22:46:26.609Z,39.63
2023-01-23T22:48:53.550Z,39.40
2023-01-23T22:51:24.621Z,43.92
2023-01-23T22:53:53.195Z,38.00
2023-01-23T22:56:20.518Z,38.05
2023-01-23T22:58:48.583Z,35.70
2023-01-23T23:01:16.296Z,44.90
2023-01-23T23:03:43.295Z,39.67
2023-01-23T23:06:12.842Z,39.78
2023-01-23T23:08:39.791Z,38.60
2023-01-23T23:11:14.547Z,36.67
2023-01-23T23:13:41.586Z,36.65
2023-01-23T23:16:21.991Z,36.63
2023-01-23T23:18:51.935Z,43.88
2023-01-23T23:21:22.342Z,40.00
2023-01-23T23:23:49.588Z,43.00
2023-01-23T23:26:16.884Z,34.25
2023-01-23T23:28:43.897Z,44.30
2023-01-23T23:31:10.969Z,19.27
2023-01-23T23:33:38.195Z,31.67
2023-01-23T23:36:05.886Z,34.28
2023-01-23T23:38:32.932Z,36.45
2023-01-23T23:41:02.200Z,40.50
2023-01-23T23:43:29.389Z,36.50
2023-01-23T23:45:58.732Z,39.40
2023-01-23T23:48:26.444Z,31.52
2023-01-23T23:50:54.266Z,41.05
2023-01-23T23:53:22.114Z,45.65
2023-01-23T23:55:49.362Z,43.03
2023-01-23T23:58:16.221Z,41.80
